sensor_id;sensor_type;location;lat;lon;timestamp;P1;durP1;ratioP1;P2;durP2;ratioP2
6928;SDS011;3504;52.616;13.238;2023-05-10T00:03:16;8.40;;;6.13;;
6928;SDS011;3504;52.616;13.238;2023-05-10T00:08:16;6.73;;;6.03;;
6928;SDS011;3504;52.616;13.238;2023-05-10T00:13:17;6.97;;;6.23;;
6928;SDS011;3504;52.616;13.238;2023-05-10T00:18:17;7.77;;;6.40;;
6928;SDS011;3504;52.616;13.238;2023-05-10T00:23:18;11.07;;;6.00;;
6928;SDS011;3504;52.616;13.238;2023-05-10T00:28:18;7.97;;;6.53;;
6928;SDS011;3504;52.616;13.238;2023-05-10T00:33:19;7.87;;;6.87;;
6928;SDS011;3504;52.616;13.238;2023-05-10T00:38:19;7.17;;;5.83;;
6928;SDS011;3504;52.616;13.238;2023-05-10T00:43:20;8.23;;;6.50;;
6928;SDS011;3504;52.616;13.238;2023-05-10T00:48:21;7.40;;;6.67;;
6928;SDS011;3504;52.616;13.238;2023-05-10T00:53:22;11.80;;;6.90;;
6928;SDS011;3504;52.616;13.238;2023-05-10T00:58:24;8.63;;;6.63;;
6928;SDS011;3504;52.616;13.238;2023-05-10T01:03:28;8.80;;;6.90;;
6928;SDS011;3504;52.616;13.238;2023-05-10T01:08:29;8.70;;;6.67;;
6928;SDS011;3504;52.616;13.238;2023-05-10T01:13:37;8.50;;;6.93;;
6928;SDS011;3504;52.616;13.238;2023-05-10T01:18:41;8.27;;;6.80;;
6928;SDS011;3504;52.616;13.238;2023-05-10T01:35:03;7.77;;;6.97;;
6928;SDS011;3504;52.616;13.238;2023-05-10T01:40:17;10.77;;;7.10;;
6928;SDS011;3504;52.616;13.238;2023-05-10T01:45:33;10.07;;;7.47;;
6928;SDS011;3504;52.616;13.238;2023-05-10T01:50:43;9.17;;;7.13;;
6928;SDS011;3504;52.616;13.238;2023-05-10T01:55:48;12.77;;;7.80;;
6928;SDS011;3504;52.616;13.238;2023-05-10T02:00:52;8.93;;;7.27;;
6928;SDS011;3504;52.616;13.238;2023-05-10T02:05:54;8.10;;;6.70;;
6928;SDS011;3504;52.616;13.238;2023-05-10T02:10:57;7.83;;;6.83;;
6928;SDS011;3504;52.616;13.238;2023-05-10T02:15:59;8.27;;;6.93;;
6928;SDS011;3504;52.616;13.238;2023-05-10T02:21:01;8.73;;;7.13;;
6928;SDS011;3504;52.616;13.238;2023-05-10T02:26:02;7.03;;;6.37;;
6928;SDS011;3504;52.616;13.238;2023-05-10T02:31:05;7.40;;;6.63;;
6928;SDS011;3504;52.616;13.238;2023-05-10T02:36:07;9.10;;;7.10;;
6928;SDS011;3504;52.616;13.238;2023-05-10T02:41:10;9.43;;;7.00;;
6928;SDS011;3504;52.616;13.238;2023-05-10T02:46:11;8.20;;;6.63;;
6928;SDS011;3504;52.616;13.238;2023-05-10T02:51:12;10.77;;;7.23;;
6928;SDS011;3504;52.616;13.238;2023-05-10T02:56:20;10.10;;;6.73;;
6928;SDS011;3504;52.616;13.238;2023-05-10T03:01:25;8.43;;;6.50;;
6928;SDS011;3504;52.616;13.238;2023-05-10T03:06:26;9.27;;;6.47;;
6928;SDS011;3504;52.616;13.238;2023-05-10T03:11:47;8.50;;;6.77;;
6928;SDS011;3504;52.616;13.238;2023-05-10T03:17:06;12.37;;;7.50;;
6928;SDS011;3504;52.616;13.238;2023-05-10T03:22:13;6.87;;;6.10;;
6928;SDS011;3504;52.616;13.238;2023-05-10T03:27:26;9.20;;;6.93;;
6928;SDS011;3504;52.616;13.238;2023-05-10T03:32:29;8.93;;;6.63;;
6928;SDS011;3504;52.616;13.238;2023-05-10T03:37:32;8.63;;;6.53;;
6928;SDS011;3504;52.616;13.238;2023-05-10T03:42:33;9.87;;;5.80;;
6928;SDS011;3504;52.616;13.238;2023-05-10T03:47:34;10.17;;;6.27;;
6928;SDS011;3504;52.616;13.238;2023-05-10T03:52:35;8.07;;;5.87;;
6928;SDS011;3504;52.616;13.238;2023-05-10T03:57:36;7.97;;;6.77;;
6928;SDS011;3504;52.616;13.238;2023-05-10T04:02:37;9.67;;;6.20;;
6928;SDS011;3504;52.616;13.238;2023-05-10T04:07:38;7.83;;;5.80;;
6928;SDS011;3504;52.616;13.238;2023-05-10T04:12:38;8.77;;;6.40;;
6928;SDS011;3504;52.616;13.238;2023-05-10T04:17:39;6.97;;;5.57;;
6928;SDS011;3504;52.616;13.238;2023-05-10T04:22:39;8.57;;;6.13;;
6928;SDS011;3504;52.616;13.238;2023-05-10T04:27:40;10.37;;;6.20;;
6928;SDS011;3504;52.616;13.238;2023-05-10T04:32:41;7.43;;;6.13;;
6928;SDS011;3504;52.616;13.238;2023-05-10T04:37:42;8.63;;;5.87;;
6928;SDS011;3504;52.616;13.238;2023-05-10T04:42:43;9.07;;;5.83;;
6928;SDS011;3504;52.616;13.238;2023-05-10T04:47:44;8.20;;;5.70;;
6928;SDS011;3504;52.616;13.238;2023-05-10T04:52:44;9.03;;;5.53;;
6928;SDS011;3504;52.616;13.238;2023-05-10T04:57:45;11.20;;;6.20;;
6928;SDS011;3504;52.616;13.238;2023-05-10T05:02:46;9.63;;;5.83;;
6928;SDS011;3504;52.616;13.238;2023-05-10T05:07:46;7.67;;;5.27;;
6928;SDS011;3504;52.616;13.238;2023-05-10T05:12:47;8.47;;;5.53;;
6928;SDS011;3504;52.616;13.238;2023-05-10T05:17:47;10.70;;;6.13;;
6928;SDS011;3504;52.616;13.238;2023-05-10T05:22:48;5.97;;;5.37;;
6928;SDS011;3504;52.616;13.238;2023-05-10T05:27:52;7.00;;;5.60;;
6928;SDS011;3504;52.616;13.238;2023-05-10T05:32:53;7.40;;;5.17;;
6928;SDS011;3504;52.616;13.238;2023-05-10T05:37:53;6.10;;;5.00;;
6928;SDS011;3504;52.616;13.238;2023-05-10T05:42:54;7.60;;;4.67;;
6928;SDS011;3504;52.616;13.238;2023-05-10T05:47:57;7.07;;;4.50;;
6928;SDS011;3504;52.616;13.238;2023-05-10T05:52:57;10.03;;;5.00;;
6928;SDS011;3504;52.616;13.238;2023-05-10T05:57:58;5.43;;;4.50;;
6928;SDS011;3504;52.616;13.238;2023-05-10T06:02:58;6.70;;;4.47;;
6928;SDS011;3504;52.616;13.238;2023-05-10T06:07:59;6.13;;;4.03;;
6928;SDS011;3504;52.616;13.238;2023-05-10T06:13:00;6.10;;;4.00;;
6928;SDS011;3504;52.616;13.238;2023-05-10T06:18:01;7.17;;;4.17;;
6928;SDS011;3504;52.616;13.238;2023-05-10T06:23:01;5.80;;;4.03;;
6928;SDS011;3504;52.616;13.238;2023-05-10T06:28:05;7.57;;;3.83;;
6928;SDS011;3504;52.616;13.238;2023-05-10T06:33:06;6.30;;;3.73;;
6928;SDS011;3504;52.616;13.238;2023-05-10T06:38:07;6.63;;;3.77;;
6928;SDS011;3504;52.616;13.238;2023-05-10T06:43:07;4.50;;;3.70;;
6928;SDS011;3504;52.616;13.238;2023-05-10T06:48:12;4.87;;;4.10;;
6928;SDS011;3504;52.616;13.238;2023-05-10T06:53:12;5.30;;;3.83;;
6928;SDS011;3504;52.616;13.238;2023-05-10T06:58:13;7.17;;;3.83;;
6928;SDS011;3504;52.616;13.238;2023-05-10T07:03:13;8.90;;;3.70;;
6928;SDS011;3504;52.616;13.238;2023-05-10T07:08:14;6.00;;;3.60;;
6928;SDS011;3504;52.616;13.238;2023-05-10T07:13:15;5.83;;;3.50;;
6928;SDS011;3504;52.616;13.238;2023-05-10T07:18:15;6.90;;;3.00;;
6928;SDS011;3504;52.616;13.238;2023-05-10T07:23:16;10.90;;;3.53;;
6928;SDS011;3504;52.616;13.238;2023-05-10T07:28:20;8.60;;;3.43;;
6928;SDS011;3504;52.616;13.238;2023-05-10T07:33:20;7.18;;;3.55;;
6928;SDS011;3504;52.616;13.238;2023-05-10T07:38:21;6.88;;;3.50;;
6928;SDS011;3504;52.616;13.238;2023-05-10T07:43:21;4.63;;;3.22;;
6928;SDS011;3504;52.616;13.238;2023-05-10T07:48:22;4.38;;;3.33;;
6928;SDS011;3504;52.616;13.238;2023-05-10T07:53:22;6.78;;;3.33;;
6928;SDS011;3504;52.616;13.238;2023-05-10T07:58:23;6.45;;;3.65;;
6928;SDS011;3504;52.616;13.238;2023-05-10T08:03:24;9.50;;;3.72;;
6928;SDS011;3504;52.616;13.238;2023-05-10T08:08:25;5.70;;;3.50;;
6928;SDS011;3504;52.616;13.238;2023-05-10T08:13:25;6.10;;;3.60;;
6928;SDS011;3504;52.616;13.238;2023-05-10T08:18:26;4.88;;;3.30;;
6928;SDS011;3504;52.616;13.238;2023-05-10T08:23:29;8.85;;;3.58;;
6928;SDS011;3504;52.616;13.238;2023-05-10T08:28:30;5.10;;;3.25;;
6928;SDS011;3504;52.616;13.238;2023-05-10T08:33:30;4.22;;;3.28;;
6928;SDS011;3504;52.616;13.238;2023-05-10T08:38:31;5.65;;;3.33;;
6928;SDS011;3504;52.616;13.238;2023-05-10T08:43:31;3.83;;;3.45;;
6928;SDS011;3504;52.616;13.238;2023-05-10T08:48:33;5.30;;;3.25;;
6928;SDS011;3504;52.616;13.238;2023-05-10T08:53:34;6.65;;;3.30;;
6928;SDS011;3504;52.616;13.238;2023-05-10T08:58:37;9.65;;;3.55;;
6928;SDS011;3504;52.616;13.238;2023-05-10T09:03:40;5.38;;;3.40;;
6928;SDS011;3504;52.616;13.238;2023-05-10T09:08:41;6.28;;;3.63;;
6928;SDS011;3504;52.616;13.238;2023-05-10T09:13:42;5.22;;;3.33;;
6928;SDS011;3504;52.616;13.238;2023-05-10T09:18:43;10.07;;;3.38;;
6928;SDS011;3504;52.616;13.238;2023-05-10T09:23:44;3.65;;;3.33;;
6928;SDS011;3504;52.616;13.238;2023-05-10T09:28:50;5.65;;;3.40;;
6928;SDS011;3504;52.616;13.238;2023-05-10T09:33:55;4.85;;;3.45;;
6928;SDS011;3504;52.616;13.238;2023-05-10T09:38:57;7.10;;;3.20;;
6928;SDS011;3504;52.616;13.238;2023-05-10T09:43:57;4.00;;;3.03;;
6928;SDS011;3504;52.616;13.238;2023-05-10T09:48:58;3.35;;;3.05;;
6928;SDS011;3504;52.616;13.238;2023-05-10T09:54:11;3.95;;;3.22;;
6928;SDS011;3504;52.616;13.238;2023-05-10T09:59:14;4.88;;;3.33;;
6928;SDS011;3504;52.616;13.238;2023-05-10T10:04:15;5.05;;;3.05;;
6928;SDS011;3504;52.616;13.238;2023-05-10T10:09:16;3.92;;;3.08;;
6928;SDS011;3504;52.616;13.238;2023-05-10T10:14:19;4.97;;;3.17;;
6928;SDS011;3504;52.616;13.238;2023-05-10T10:19:21;3.97;;;3.10;;
6928;SDS011;3504;52.616;13.238;2023-05-10T10:24:22;5.97;;;3.60;;
6928;SDS011;3504;52.616;13.238;2023-05-10T10:29:30;6.22;;;3.72;;
6928;SDS011;3504;52.616;13.238;2023-05-10T10:34:47;3.80;;;3.33;;
6928;SDS011;3504;52.616;13.238;2023-05-10T10:39:48;4.15;;;3.08;;
6928;SDS011;3504;52.616;13.238;2023-05-10T10:44:53;5.57;;;3.42;;
6928;SDS011;3504;52.616;13.238;2023-05-10T10:50:13;4.95;;;3.42;;
6928;SDS011;3504;52.616;13.238;2023-05-10T10:55:19;4.80;;;3.28;;
6928;SDS011;3504;52.616;13.238;2023-05-10T11:00:35;6.05;;;3.45;;
6928;SDS011;3504;52.616;13.238;2023-05-10T11:10:39;3.95;;;3.05;;
6928;SDS011;3504;52.616;13.238;2023-05-10T11:15:48;4.80;;;3.22;;
6928;SDS011;3504;52.616;13.238;2023-05-10T11:20:50;5.65;;;3.13;;
6928;SDS011;3504;52.616;13.238;2023-05-10T11:26:00;3.67;;;3.10;;
6928;SDS011;3504;52.616;13.238;2023-05-10T11:31:04;4.65;;;3.20;;
6928;SDS011;3504;52.616;13.238;2023-05-10T11:36:05;3.45;;;2.85;;
6928;SDS011;3504;52.616;13.238;2023-05-10T11:41:15;5.00;;;3.10;;
6928;SDS011;3504;52.616;13.238;2023-05-10T11:46:18;3.97;;;3.15;;
6928;SDS011;3504;52.616;13.238;2023-05-10T11:51:24;5.20;;;2.90;;
6928;SDS011;3504;52.616;13.238;2023-05-10T11:56:25;4.93;;;3.08;;
6928;SDS011;3504;52.616;13.238;2023-05-10T12:01:27;4.82;;;3.00;;
6928;SDS011;3504;52.616;13.238;2023-05-10T12:06:29;4.30;;;3.10;;
6928;SDS011;3504;52.616;13.238;2023-05-10T12:11:32;4.75;;;3.00;;
6928;SDS011;3504;52.616;13.238;2023-05-10T12:16:37;3.75;;;3.05;;
6928;SDS011;3504;52.616;13.238;2023-05-10T12:21:38;3.67;;;3.13;;
6928;SDS011;3504;52.616;13.238;2023-05-10T12:26:38;4.70;;;2.85;;
6928;SDS011;3504;52.616;13.238;2023-05-10T12:31:51;4.80;;;2.80;;
6928;SDS011;3504;52.616;13.238;2023-05-10T12:36:54;7.57;;;3.13;;
6928;SDS011;3504;52.616;13.238;2023-05-10T12:41:55;5.22;;;2.90;;
6928;SDS011;3504;52.616;13.238;2023-05-10T12:46:56;4.35;;;3.25;;
6928;SDS011;3504;52.616;13.238;2023-05-10T12:51:57;5.22;;;3.00;;
6928;SDS011;3504;52.616;13.238;2023-05-10T12:56:57;5.47;;;2.97;;
6928;SDS011;3504;52.616;13.238;2023-05-10T13:01:58;6.13;;;3.03;;
6928;SDS011;3504;52.616;13.238;2023-05-10T13:06:59;4.32;;;3.35;;
6928;SDS011;3504;52.616;13.238;2023-05-10T13:12:00;5.53;;;3.10;;
6928;SDS011;3504;52.616;13.238;2023-05-10T13:17:00;4.60;;;2.90;;
6928;SDS011;3504;52.616;13.238;2023-05-10T13:22:01;6.05;;;2.90;;
6928;SDS011;3504;52.616;13.238;2023-05-10T13:27:01;6.47;;;3.50;;
6928;SDS011;3504;52.616;13.238;2023-05-10T13:32:02;4.25;;;3.05;;
6928;SDS011;3504;52.616;13.238;2023-05-10T13:37:02;5.63;;;3.15;;
6928;SDS011;3504;52.616;13.238;2023-05-10T13:42:03;6.13;;;2.90;;
6928;SDS011;3504;52.616;13.238;2023-05-10T13:47:05;5.05;;;3.13;;
6928;SDS011;3504;52.616;13.238;2023-05-10T13:52:06;5.45;;;3.30;;
6928;SDS011;3504;52.616;13.238;2023-05-10T13:57:06;5.35;;;3.10;;
6928;SDS011;3504;52.616;13.238;2023-05-10T14:02:07;4.95;;;3.50;;
6928;SDS011;3504;52.616;13.238;2023-05-10T14:07:07;5.38;;;3.35;;
6928;SDS011;3504;52.616;13.238;2023-05-10T14:12:08;3.83;;;3.00;;
6928;SDS011;3504;52.616;13.238;2023-05-10T14:17:08;4.85;;;2.97;;
6928;SDS011;3504;52.616;13.238;2023-05-10T14:22:10;3.33;;;3.03;;
6928;SDS011;3504;52.616;13.238;2023-05-10T14:27:10;3.35;;;3.00;;
6928;SDS011;3504;52.616;13.238;2023-05-10T14:32:11;3.40;;;2.67;;
6928;SDS011;3504;52.616;13.238;2023-05-10T14:37:13;7.70;;;2.80;;
6928;SDS011;3504;52.616;13.238;2023-05-10T14:42:14;6.15;;;3.05;;
6928;SDS011;3504;52.616;13.238;2023-05-10T14:47:15;4.97;;;3.05;;
6928;SDS011;3504;52.616;13.238;2023-05-10T14:52:15;5.88;;;3.05;;
6928;SDS011;3504;52.616;13.238;2023-05-10T14:57:16;3.20;;;2.90;;
6928;SDS011;3504;52.616;13.238;2023-05-10T15:02:19;4.15;;;3.50;;
6928;SDS011;3504;52.616;13.238;2023-05-10T15:07:20;5.18;;;2.95;;
6928;SDS011;3504;52.616;13.238;2023-05-10T15:12:20;4.15;;;3.05;;
6928;SDS011;3504;52.616;13.238;2023-05-10T15:17:21;4.95;;;2.83;;
6928;SDS011;3504;52.616;13.238;2023-05-10T15:22:21;5.05;;;2.67;;
6928;SDS011;3504;52.616;13.238;2023-05-10T15:27:22;6.25;;;2.92;;
6928;SDS011;3504;52.616;13.238;2023-05-10T15:32:23;6.10;;;2.92;;
6928;SDS011;3504;52.616;13.238;2023-05-10T15:37:23;4.13;;;2.92;;
6928;SDS011;3504;52.616;13.238;2023-05-10T15:42:24;5.60;;;2.80;;
6928;SDS011;3504;52.616;13.238;2023-05-10T15:47:25;3.30;;;3.00;;
6928;SDS011;3504;52.616;13.238;2023-05-10T15:52:26;5.43;;;3.08;;
6928;SDS011;3504;52.616;13.238;2023-05-10T15:57:27;5.65;;;3.40;;
6928;SDS011;3504;52.616;13.238;2023-05-10T16:02:27;8.10;;;2.95;;
6928;SDS011;3504;52.616;13.238;2023-05-10T16:07:28;5.40;;;3.40;;
6928;SDS011;3504;52.616;13.238;2023-05-10T16:12:29;6.20;;;3.67;;
6928;SDS011;3504;52.616;13.238;2023-05-10T16:17:30;6.38;;;4.88;;
6928;SDS011;3504;52.616;13.238;2023-05-10T16:22:31;6.53;;;4.78;;
6928;SDS011;3504;52.616;13.238;2023-05-10T16:27:31;7.00;;;4.90;;
6928;SDS011;3504;52.616;13.238;2023-05-10T16:32:32;8.95;;;5.20;;
6928;SDS011;3504;52.616;13.238;2023-05-10T16:37:33;6.35;;;5.22;;
6928;SDS011;3504;52.616;13.238;2023-05-10T16:42:33;6.45;;;5.78;;
6928;SDS011;3504;52.616;13.238;2023-05-10T16:47:34;6.70;;;5.70;;
6928;SDS011;3504;52.616;13.238;2023-05-10T16:52:36;6.05;;;5.45;;
6928;SDS011;3504;52.616;13.238;2023-05-10T16:57:36;8.05;;;5.97;;
6928;SDS011;3504;52.616;13.238;2023-05-10T17:02:37;9.00;;;5.65;;
6928;SDS011;3504;52.616;13.238;2023-05-10T17:07:38;7.10;;;6.15;;
6928;SDS011;3504;52.616;13.238;2023-05-10T17:12:38;12.52;;;5.57;;
6928;SDS011;3504;52.616;13.238;2023-05-10T17:17:39;10.40;;;5.35;;
6928;SDS011;3504;52.616;13.238;2023-05-10T17:22:40;7.20;;;5.93;;
6928;SDS011;3504;52.616;13.238;2023-05-10T17:27:40;10.18;;;5.72;;
6928;SDS011;3504;52.616;13.238;2023-05-10T17:32:41;9.90;;;6.95;;
6928;SDS011;3504;52.616;13.238;2023-05-10T17:37:42;8.40;;;7.60;;
6928;SDS011;3504;52.616;13.238;2023-05-10T17:42:43;6.80;;;6.07;;
6928;SDS011;3504;52.616;13.238;2023-05-10T17:47:44;6.60;;;5.88;;
6928;SDS011;3504;52.616;13.238;2023-05-10T17:52:45;6.78;;;6.10;;
6928;SDS011;3504;52.616;13.238;2023-05-10T17:57:45;7.25;;;6.30;;
6928;SDS011;3504;52.616;13.238;2023-05-10T18:02:46;6.45;;;5.85;;
6928;SDS011;3504;52.616;13.238;2023-05-10T18:07:47;6.57;;;5.97;;
6928;SDS011;3504;52.616;13.238;2023-05-10T18:12:47;8.80;;;6.03;;
6928;SDS011;3504;52.616;13.238;2023-05-10T18:17:49;7.47;;;5.97;;
6928;SDS011;3504;52.616;13.238;2023-05-10T18:22:50;10.73;;;6.40;;
6928;SDS011;3504;52.616;13.238;2023-05-10T18:27:50;7.03;;;6.43;;
6928;SDS011;3504;52.616;13.238;2023-05-10T18:32:51;7.03;;;6.43;;
6928;SDS011;3504;52.616;13.238;2023-05-10T18:37:52;7.05;;;5.97;;
6928;SDS011;3504;52.616;13.238;2023-05-10T18:42:56;8.43;;;6.03;;
6928;SDS011;3504;52.616;13.238;2023-05-10T18:47:57;9.23;;;6.40;;
6928;SDS011;3504;52.616;13.238;2023-05-10T18:52:57;11.88;;;6.35;;
6928;SDS011;3504;52.616;13.238;2023-05-10T18:57:58;8.40;;;7.05;;
6928;SDS011;3504;52.616;13.238;2023-05-10T19:02:59;7.00;;;6.28;;
6928;SDS011;3504;52.616;13.238;2023-05-10T19:07:59;8.02;;;7.22;;
6928;SDS011;3504;52.616;13.238;2023-05-10T19:13:00;10.82;;;7.10;;
6928;SDS011;3504;52.616;13.238;2023-05-10T19:18:01;7.30;;;6.60;;
6928;SDS011;3504;52.616;13.238;2023-05-10T19:23:01;7.45;;;6.75;;
6928;SDS011;3504;52.616;13.238;2023-05-10T19:28:02;11.02;;;7.00;;
6928;SDS011;3504;52.616;13.238;2023-05-10T19:33:02;7.20;;;6.50;;
6928;SDS011;3504;52.616;13.238;2023-05-10T19:38:04;12.35;;;7.88;;
6928;SDS011;3504;52.616;13.238;2023-05-10T19:43:05;8.30;;;6.85;;
6928;SDS011;3504;52.616;13.238;2023-05-10T19:48:06;8.63;;;7.55;;
6928;SDS011;3504;52.616;13.238;2023-05-10T19:53:06;8.18;;;6.85;;
6928;SDS011;3504;52.616;13.238;2023-05-10T19:58:06;9.65;;;7.75;;
6928;SDS011;3504;52.616;13.238;2023-05-10T20:03:07;14.00;;;7.65;;
6928;SDS011;3504;52.616;13.238;2023-05-10T20:08:08;8.02;;;7.22;;
6928;SDS011;3504;52.616;13.238;2023-05-10T20:13:08;10.20;;;8.25;;
6928;SDS011;3504;52.616;13.238;2023-05-10T20:18:09;9.00;;;7.80;;
6928;SDS011;3504;52.616;13.238;2023-05-10T20:23:09;8.32;;;7.53;;
6928;SDS011;3504;52.616;13.238;2023-05-10T20:28:09;8.20;;;7.40;;
6928;SDS011;3504;52.616;13.238;2023-05-10T20:33:12;10.40;;;8.00;;
6928;SDS011;3504;52.616;13.238;2023-05-10T20:38:14;9.07;;;8.02;;
6928;SDS011;3504;52.616;13.238;2023-05-10T20:43:15;8.88;;;7.82;;
6928;SDS011;3504;52.616;13.238;2023-05-10T20:48:15;9.80;;;7.67;;
6928;SDS011;3504;52.616;13.238;2023-05-10T20:53:16;9.50;;;8.50;;
6928;SDS011;3504;52.616;13.238;2023-05-10T20:58:17;12.82;;;8.45;;
6928;SDS011;3504;52.616;13.238;2023-05-10T21:03:18;10.73;;;9.03;;
6928;SDS011;3504;52.616;13.238;2023-05-10T21:08:18;11.67;;;8.63;;
6928;SDS011;3504;52.616;13.238;2023-05-10T21:13:18;10.87;;;9.77;;
6928;SDS011;3504;52.616;13.238;2023-05-10T21:18:19;11.87;;;10.10;;
6928;SDS011;3504;52.616;13.238;2023-05-10T21:23:19;14.13;;;11.40;;
6928;SDS011;3504;52.616;13.238;2023-05-10T21:28:20;11.40;;;10.20;;
6928;SDS011;3504;52.616;13.238;2023-05-10T21:33:21;10.70;;;8.47;;
6928;SDS011;3504;52.616;13.238;2023-05-10T21:38:21;11.93;;;9.07;;
6928;SDS011;3504;52.616;13.238;2023-05-10T21:43:22;10.07;;;8.47;;
6928;SDS011;3504;52.616;13.238;2023-05-10T21:48:22;10.10;;;8.60;;
6928;SDS011;3504;52.616;13.238;2023-05-10T21:53:23;10.57;;;8.80;;
6928;SDS011;3504;52.616;13.238;2023-05-10T21:58:23;10.13;;;8.77;;
6928;SDS011;3504;52.616;13.238;2023-05-10T22:03:24;9.97;;;8.70;;
6928;SDS011;3504;52.616;13.238;2023-05-10T22:08:25;11.73;;;9.57;;
6928;SDS011;3504;52.616;13.238;2023-05-10T22:13:25;12.30;;;9.73;;
6928;SDS011;3504;52.616;13.238;2023-05-10T22:18:26;10.47;;;8.80;;
6928;SDS011;3504;52.616;13.238;2023-05-10T22:23:26;12.53;;;8.73;;
6928;SDS011;3504;52.616;13.238;2023-05-10T22:28:27;12.10;;;9.73;;
6928;SDS011;3504;52.616;13.238;2023-05-10T22:33:28;12.43;;;9.67;;
6928;SDS011;3504;52.616;13.238;2023-05-10T22:38:28;11.30;;;8.53;;
6928;SDS011;3504;52.616;13.238;2023-05-10T22:43:29;9.43;;;8.47;;
6928;SDS011;3504;52.616;13.238;2023-05-10T22:48:29;14.07;;;9.13;;
6928;SDS011;3504;52.616;13.238;2023-05-10T22:53:32;11.87;;;8.97;;
6928;SDS011;3504;52.616;13.238;2023-05-10T22:58:32;12.07;;;9.40;;
6928;SDS011;3504;52.616;13.238;2023-05-10T23:03:33;10.33;;;8.70;;
6928;SDS011;3504;52.616;13.238;2023-05-10T23:08:34;9.37;;;8.40;;
6928;SDS011;3504;52.616;13.238;2023-05-10T23:13:34;11.63;;;8.97;;
6928;SDS011;3504;52.616;13.238;2023-05-10T23:18:35;11.87;;;9.30;;
6928;SDS011;3504;52.616;13.238;2023-05-10T23:23:35;13.33;;;9.90;;
6928;SDS011;3504;52.616;13.238;2023-05-10T23:28:36;10.00;;;8.90;;
6928;SDS011;3504;52.616;13.238;2023-05-10T23:33:36;10.67;;;8.90;;
6928;SDS011;3504;52.616;13.238;2023-05-10T23:38:37;12.77;;;9.30;;
6928;SDS011;3504;52.616;13.238;2023-05-10T23:43:38;11.53;;;8.73;;
6928;SDS011;3504;52.616;13.238;2023-05-10T23:48:38;10.20;;;9.17;;
6928;SDS011;3504;52.616;13.238;2023-05-10T23:53:39;10.53;;;9.43;;
6928;SDS011;3504;52.616;13.238;2023-05-10T23:58:39;9.20;;;8.00;;
